Time;durP1;ratioP1;P1;durP2;ratioP2;P2;SDS_P1;SDS_P2;PMS_P1;PMS_P2;Temp;Humidity;BMP_temperature;BMP_pressure;BME280_temperature;BME280_humidity;BME280_pressure;Samples;Min_cycle;Max_cycle;Signal;HPM_P1;HPM_P2
2022/08/29 00:00:39;;;;;;;3.4;2.5;;;;;;;;;;;;;
2022/08/29 00:03:05;;;;;;;4.1;2.5;;;;;;;;;;;;;
2022/08/29 00:05:30;;;;;;;4.6;2.4;;;;;;;;;;;;;
2022/08/29 00:07:57;;;;;;;3.9;2.9;;;;;;;;;;;;;
2022/08/29 00:10:21;;;;;;;3.7;2.4;;;;;;;;;;;;;
2022/08/29 00:12:46;;;;;;;3.1;2.4;;;;;;;;;;;;;
2022/08/29 00:15:11;;;;;;;2.9;2.6;;;;;;;;;;;;;
2022/08/29 00:17:37;;;;;;;2.9;2.6;;;;;;;;;;;;;
2022/08/29 00:20:03;;;;;;;2.9;2.2;;;;;;;;;;;;;
2022/08/29 00:22:30;;;;;;;2.9;2.6;;;;;;;;;;;;;
2022/08/29 00:24:54;;;;;;;4.2;3.1;;;;;;;;;;;;;
2022/08/29 00:27:19;;;;;;;3.2;2.9;;;;;;;;;;;;;
2022/08/29 00:29:44;;;;;;;3.1;2.8;;;;;;;;;;;;;
2022/08/29 00:32:11;;;;;;;2.9;2.5;;;;;;;;;;;;;
2022/08/29 00:34:36;;;;;;;2.9;2.6;;;;;;;;;;;;;
2022/08/29 00:37:01;;;;;;;3.1;2.8;;;;;;;;;;;;;
2022/08/29 00:39:27;;;;;;;2.7;2.5;;;;;;;;;;;;;
2022/08/29 00:41:54;;;;;;;3.7;2.8;;;;;;;;;;;;;
2022/08/29 00:44:19;;;;;;;5.3;2.9;;;;;;;;;;;;;
2022/08/29 00:46:45;;;;;;;3.2;2.6;;;;;;;;;;;;;
2022/08/29 00:49:09;;;;;;;3.3;2.8;;;;;;;;;;;;;
2022/08/29 00:51:35;;;;;;;3.3;3;;;;;;;;;;;;;
2022/08/29 00:53:59;;;;;;;3.4;2.7;;;;;;;;;;;;;
2022/08/29 00:56:25;;;;;;;2.8;2.4;;;;;;;;;;;;;
2022/08/29 00:58:50;;;;;;;3.1;2.6;;;;;;;;;;;;;
2022/08/29 01:01:16;;;;;;;5.4;2.6;;;;;;;;;;;;;
2022/08/29 01:03:41;;;;;;;3.8;2.6;;;;;;;;;;;;;
2022/08/29 01:06:06;;;;;;;2.5;2.3;;;;;;;;;;;;;
2022/08/29 01:08:32;;;;;;;3.6;2.7;;;;;;;;;;;;;
2022/08/29 01:13:23;;;;;;;5.4;2.8;;;;;;;;;;;;;
2022/08/29 01:15:49;;;;;;;3.1;2.7;;;;;;;;;;;;;
2022/08/29 01:18:14;;;;;;;3.3;2.8;;;;;;;;;;;;;
2022/08/29 01:20:40;;;;;;;3.8;2.7;;;;;;;;;;;;;
2022/08/29 01:23:04;;;;;;;3.1;2.6;;;;;;;;;;;;;
2022/08/29 01:25:30;;;;;;;2.8;2.5;;;;;;;;;;;;;
2022/08/29 01:27:55;;;;;;;4.6;2.5;;;;;;;;;;;;;
2022/08/29 01:30:20;;;;;;;3.2;2.4;;;;;;;;;;;;;
2022/08/29 01:32:45;;;;;;;4.4;2.6;;;;;;;;;;;;;
2022/08/29 01:35:13;;;;;;;2.9;2.5;;;;;;;;;;;;;
2022/08/29 01:37:38;;;;;;;3.2;2.9;;;;;;;;;;;;;
2022/08/29 01:40:03;;;;;;;4.1;2.7;;;;;;;;;;;;;
2022/08/29 01:42:31;;;;;;;3.3;2.8;;;;;;;;;;;;;
2022/08/29 01:44:57;;;;;;;2.6;2.4;;;;;;;;;;;;;
2022/08/29 01:47:22;;;;;;;3;2.7;;;;;;;;;;;;;
2022/08/29 01:49:49;;;;;;;3.8;2.4;;;;;;;;;;;;;
2022/08/29 01:52:14;;;;;;;3.2;2.5;;;;;;;;;;;;;
2022/08/29 01:54:39;;;;;;;2.9;2.5;;;;;;;;;;;;;
2022/08/29 01:57:04;;;;;;;3.5;2.4;;;;;;;;;;;;;
2022/08/29 01:59:29;;;;;;;5.1;2.8;;;;;;;;;;;;;
2022/08/29 02:01:56;;;;;;;2.7;2.5;;;;;;;;;;;;;
2022/08/29 02:04:21;;;;;;;3;2.5;;;;;;;;;;;;;
2022/08/29 02:06:47;;;;;;;4.1;2.6;;;;;;;;;;;;;
2022/08/29 02:09:12;;;;;;;2.8;2.5;;;;;;;;;;;;;
2022/08/29 02:11:38;;;;;;;3.5;2.7;;;;;;;;;;;;;
2022/08/29 02:14:04;;;;;;;2.9;2.4;;;;;;;;;;;;;
2022/08/29 02:16:30;;;;;;;4.4;3;;;;;;;;;;;;;
2022/08/29 02:18:55;;;;;;;4.1;2.5;;;;;;;;;;;;;
2022/08/29 02:21:21;;;;;;;2.9;2.5;;;;;;;;;;;;;
2022/08/29 02:23:45;;;;;;;2.5;2.3;;;;;;;;;;;;;
2022/08/29 02:26:11;;;;;;;4;2.5;;;;;;;;;;;;;
2022/08/29 02:28:37;;;;;;;2.9;2.5;;;;;;;;;;;;;
2022/08/29 02:31:03;;;;;;;3.9;2.4;;;;;;;;;;;;;
2022/08/29 02:33:28;;;;;;;2.8;2.2;;;;;;;;;;;;;
2022/08/29 02:35:54;;;;;;;2.7;2.4;;;;;;;;;;;;;
2022/08/29 02:38:19;;;;;;;2.6;2.3;;;;;;;;;;;;;
2022/08/29 02:40:46;;;;;;;3;2.3;;;;;;;;;;;;;
2022/08/29 02:43:11;;;;;;;2.6;2.2;;;;;;;;;;;;;
2022/08/29 02:45:36;;;;;;;3.7;2.3;;;;;;;;;;;;;
2022/08/29 02:48:02;;;;;;;3;2.5;;;;;;;;;;;;;
2022/08/29 02:50:29;;;;;;;3.4;2.5;;;;;;;;;;;;;
2022/08/29 02:52:54;;;;;;;3;2.4;;;;;;;;;;;;;
2022/08/29 02:55:20;;;;;;;2.5;2.3;;;;;;;;;;;;;
2022/08/29 02:57:44;;;;;;;3.9;2.3;;;;;;;;;;;;;
2022/08/29 03:00:14;;;;;;;3.8;2.4;;;;;;;;;;;;;
2022/08/29 03:02:37;;;;;;;3.6;2.5;;;;;;;;;;;;;
2022/08/29 03:05:02;;;;;;;3;2.6;;;;;;;;;;;;;
2022/08/29 03:07:28;;;;;;;2.8;2.3;;;;;;;;;;;;;
2022/08/29 03:09:53;;;;;;;2.8;2.3;;;;;;;;;;;;;
2022/08/29 03:12:18;;;;;;;2.9;2.5;;;;;;;;;;;;;
2022/08/29 03:14:44;;;;;;;3.1;2.5;;;;;;;;;;;;;
2022/08/29 03:17:09;;;;;;;3.4;2.3;;;;;;;;;;;;;
2022/08/29 03:19:35;;;;;;;3.9;2.6;;;;;;;;;;;;;
2022/08/29 03:22:01;;;;;;;2.6;2.4;;;;;;;;;;;;;
2022/08/29 03:24:26;;;;;;;3.7;2.3;;;;;;;;;;;;;
2022/08/29 03:26:51;;;;;;;2.7;2.5;;;;;;;;;;;;;
2022/08/29 03:29:17;;;;;;;2.9;2.4;;;;;;;;;;;;;
2022/08/29 03:31:42;;;;;;;2.9;2.4;;;;;;;;;;;;;
2022/08/29 03:34:08;;;;;;;2.8;2.3;;;;;;;;;;;;;
2022/08/29 03:36:33;;;;;;;3.3;2.2;;;;;;;;;;;;;
2022/08/29 03:38:59;;;;;;;2.6;2.3;;;;;;;;;;;;;
2022/08/29 03:41:25;;;;;;;3.5;2.4;;;;;;;;;;;;;
2022/08/29 03:43:54;;;;;;;3;2.7;;;;;;;;;;;;;
2022/08/29 03:46:17;;;;;;;2.8;2.5;;;;;;;;;;;;;
2022/08/29 03:48:43;;;;;;;2.2;2;;;;;;;;;;;;;
2022/08/29 03:51:08;;;;;;;2.8;2.4;;;;;;;;;;;;;
2022/08/29 03:53:34;;;;;;;3.4;2.1;;;;;;;;;;;;;
2022/08/29 03:55:59;;;;;;;2.6;2.2;;;;;;;;;;;;;
2022/08/29 03:58:25;;;;;;;3.5;2.4;;;;;;;;;;;;;
2022/08/29 04:02:36;;;;;;;2.8;2.5;;;;;;;14.45;98.68945;940.1141;;;;
2022/08/29 04:05:10;;;;;;;3.2;2.4;;;;;;;14.39;99.32031;940.1666;;;;
2022/08/29 04:07:34;;;;;;;3.7;2.4;;;;;;;14.27;99.97461;940.158;;;;
2022/08/29 04:09:59;;;;;;;3.3;2.9;;;;;;;14.22;100;940.1774;;;;
2022/08/29 04:12:27;;;;;;;4.2;2.6;;;;;;;14.29;100;940.1331;;;;
2022/08/29 04:14:56;;;;;;;3;2.7;;;;;;;14.37;100;940.1819;;;;
2022/08/29 04:17:21;;;;;;;3.6;2.8;;;;;;;14.31;100;940.242;;;;
2022/08/29 04:19:46;;;;;;;4.7;2.8;;;;;;;14.4;99.89844;940.2643;;;;
2022/08/29 04:22:12;;;;;;;4.7;2.6;;;;;;;14.44;99.43359;940.2336;;;;
2022/08/29 04:24:37;;;;;;;3.5;2.8;;;;;;;14.43;99.7793;940.2079;;;;
2022/08/29 04:27:06;;;;;;;2.9;2.5;;;;;;;14.5;100;940.1581;;;;
2022/08/29 04:29:31;;;;;;;2.6;2.4;;;;;;;14.59;99.06543;940.1891;;;;
2022/08/29 04:32:00;;;;;;;3.4;2.8;;;;;;;14.64;98.34961;940.2205;;;;
2022/08/29 04:34:26;;;;;;;4.4;3;;;;;;;14.52;97.9082;940.2823;;;;
2022/08/29 04:36:55;;;;;;;14.8;8.2;;;;;;;14.4;98.46973;940.2795;;;;
2022/08/29 04:39:20;;;;;;;17.6;8.8;;;;;;;14.24;99.16992;940.2405;;;;
2022/08/29 04:41:49;;;;;;;11.3;6.8;;;;;;;14.05;100;940.2974;;;;
2022/08/29 04:44:15;;;;;;;14.1;7.1;;;;;;;13.95;100;940.3411;;;;
2022/08/29 04:46:44;;;;;;;10.1;5.8;;;;;;;13.98;100;940.3362;;;;
2022/08/29 04:49:10;;;;;;;7.5;4.7;;;;;;;14.03;100;940.3606;;;;
2022/08/29 04:51:35;;;;;;;6.9;4.1;;;;;;;14.07;100;940.3983;;;;
2022/08/29 04:54:02;;;;;;;5.6;4;;;;;;;14.25;100;940.4264;;;;
2022/08/29 04:56:27;;;;;;;6.5;4;;;;;;;14.35;99.18555;940.3918;;;;
2022/08/29 04:58:54;;;;;;;4.9;3.5;;;;;;;14.37;98.80957;940.4286;;;;
2022/08/29 05:01:19;;;;;;;2.9;2.1;;;;;;;14.41;98.24316;940.3605;;;;
2022/08/29 05:03:49;;;;;;;4.3;2.7;;;;;;;14.5;97.45703;940.4514;;;;
2022/08/29 05:06:20;;;;;;;3;2.3;;;;;;;14.5;96.94824;940.5067;;;;
2022/08/29 05:08:44;;;;;;;3.7;2.6;;;;;;;14.42;97.03418;940.472;;;;
2022/08/29 05:11:08;;;;;;;2.8;2.5;;;;;;;14.41;96.95313;940.4966;;;;
2022/08/29 05:13:36;;;;;;;4.1;2.4;;;;;;;14.38;96.92188;940.5367;;;;
2022/08/29 05:16:05;;;;;;;2.6;2;;;;;;;14.33;97.15137;940.5624;;;;
2022/08/29 05:18:32;;;;;;;3.2;2.3;;;;;;;14.38;97.26758;940.5023;;;;
2022/08/29 05:20:57;;;;;;;2.1;1.9;;;;;;;14.42;97.47168;940.4472;;;;
2022/08/29 05:23:27;;;;;;;8.5;2.6;;;;;;;14.39;97.86816;940.4799;;;;
2022/08/29 05:25:52;;;;;;;2.6;1.9;;;;;;;14.4;98.03418;940.4558;;;;
2022/08/29 05:28:18;;;;;;;5.1;2.2;;;;;;;14.28;98.76563;940.488;;;;
2022/08/29 05:30:43;;;;;;;3.5;2.6;;;;;;;14.28;99.80176;940.4175;;;;
2022/08/29 05:33:09;;;;;;;2.3;2.1;;;;;;;14.39;99.15918;940.3677;;;;
2022/08/29 05:35:35;;;;;;;3;2.2;;;;;;;14.44;98.9043;940.3794;;;;
2022/08/29 05:38:04;;;;;;;6.6;3.1;;;;;;;14.72;99.76465;940.4086;;;;
2022/08/29 05:40:29;;;;;;;1.8;1.7;;;;;;;15.9;96.20703;940.447;;;;
2022/08/29 05:42:59;;;;;;;2.7;1.7;;;;;;;17.1;86.53809;940.4888;;;;
2022/08/29 05:45:31;;;;;;;3.1;1.7;;;;;;;16.79;84.7627;940.4716;;;;
2022/08/29 05:48:01;;;;;;;3.3;2;;;;;;;16.41;87.21289;940.5284;;;;
2022/08/29 05:50:26;;;;;;;3;2;;;;;;;16.6;88.16504;940.4601;;;;
2022/08/29 05:52:51;;;;;;;1.7;1.6;;;;;;;;;;;;;
2022/08/29 05:55:16;;;;;;;3;1.8;;;;;;;;;;;;;
2022/08/29 05:57:41;;;;;;;2;1.4;;;;;;;;;;;;;
2022/08/29 06:00:07;;;;;;;1.6;1.5;;;;;;;;;;;;;
2022/08/29 06:02:35;;;;;;;1.7;1.6;;;;;;;;;;;;;
2022/08/29 06:05:00;;;;;;;2.2;1.6;;;;;;;;;;;;;
2022/08/29 06:07:26;;;;;;;5.7;1.9;;;;;;;;;;;;;
2022/08/29 06:09:52;;;;;;;2.3;1.4;;;;;;;;;;;;;
2022/08/29 06:12:17;;;;;;;1.4;1.3;;;;;;;;;;;;;
2022/08/29 06:14:42;;;;;;;3.7;1.6;;;;;;;;;;;;;
2022/08/29 06:17:08;;;;;;;3.1;1.7;;;;;;;;;;;;;
2022/08/29 06:19:33;;;;;;;2.1;1.5;;;;;;;;;;;;;
2022/08/29 06:22:00;;;;;;;1.4;1.3;;;;;;;;;;;;;
2022/08/29 06:24:24;;;;;;;1.8;1.4;;;;;;;;;;;;;
2022/08/29 06:26:50;;;;;;;1.2;1.1;;;;;;;;;;;;;
2022/08/29 06:29:15;;;;;;;2.3;1.3;;;;;;;;;;;;;
2022/08/29 06:31:42;;;;;;;1.6;1.2;;;;;;;;;;;;;
2022/08/29 06:34:08;;;;;;;2.7;1.4;;;;;;;;;;;;;
2022/08/29 06:36:32;;;;;;;1.4;1.3;;;;;;;;;;;;;
2022/08/29 06:38:57;;;;;;;2.7;1.3;;;;;;;;;;;;;
2022/08/29 06:41:24;;;;;;;1.4;1.3;;;;;;;;;;;;;
2022/08/29 06:43:49;;;;;;;1.3;1.2;;;;;;;;;;;;;
2022/08/29 06:46:15;;;;;;;1.3;1.2;;;;;;;;;;;;;
2022/08/29 06:48:40;;;;;;;1.4;1.3;;;;;;;;;;;;;
2022/08/29 06:51:05;;;;;;;1.3;1.2;;;;;;;;;;;;;
2022/08/29 06:53:30;;;;;;;1.4;1.3;;;;;;;;;;;;;
2022/08/29 06:55:58;;;;;;;1.2;1.1;;;;;;;;;;;;;
2022/08/29 06:58:23;;;;;;;2.1;1.1;;;;;;;;;;;;;
2022/08/29 07:00:50;;;;;;;3.8;1.6;;;;;;;;;;;;;
2022/08/29 07:03:14;;;;;;;1.4;1.3;;;;;;;;;;;;;
2022/08/29 07:05:40;;;;;;;1.6;1.5;;;;;;;;;;;;;
2022/08/29 07:08:08;;;;;;;1.9;1.4;;;;;;;;;;;;;
2022/08/29 07:10:32;;;;;;;2;1;;;;;;;;;;;;;
2022/08/29 07:12:57;;;;;;;1.4;1.1;;;;;;;;;;;;;
2022/08/29 07:15:26;;;;;;;1.3;1.2;;;;;;;;;;;;;
2022/08/29 07:17:51;;;;;;;1.3;1.2;;;;;;;;;;;;;
2022/08/29 07:20:16;;;;;;;1.5;1.2;;;;;;;;;;;;;
2022/08/29 07:22:41;;;;;;;1.6;1.5;;;;;;;;;;;;;
2022/08/29 07:25:07;;;;;;;1.3;1.2;;;;;;;;;;;;;
2022/08/29 07:27:32;;;;;;;1.3;1.2;;;;;;;;;;;;;
2022/08/29 07:29:57;;;;;;;1.2;1;;;;;;;;;;;;;
2022/08/29 07:32:23;;;;;;;1.4;1.3;;;;;;;;;;;;;
2022/08/29 07:34:48;;;;;;;1;1;;;;;;;;;;;;;
2022/08/29 07:37:14;;;;;;;1;1;;;;;;;;;;;;;
2022/08/29 07:39:39;;;;;;;1.9;1.4;;;;;;;;;;;;;
2022/08/29 07:42:04;;;;;;;1.3;1.2;;;;;;;;;;;;;
2022/08/29 07:44:29;;;;;;;1.3;1.2;;;;;;;;;;;;;
2022/08/29 07:46:57;;;;;;;1.2;1.1;;;;;;;;;;;;;
2022/08/29 07:49:21;;;;;;;2.5;1.1;;;;;;;;;;;;;
2022/08/29 07:51:48;;;;;;;1.2;1.2;;;;;;;;;;;;;
2022/08/29 07:54:15;;;;;;;2.1;1.3;;;;;;;;;;;;;
2022/08/29 07:56:40;;;;;;;1.1;1.1;;;;;;;;;;;;;
2022/08/29 07:59:05;;;;;;;1.3;1.2;;;;;;;;;;;;;
2022/08/29 08:01:33;;;;;;;2;1.1;;;;;;;;;;;;;
2022/08/29 08:03:57;;;;;;;1.8;1.3;;;;;;;;;;;;;
2022/08/29 08:06:24;;;;;;;1.1;1.1;;;;;;;;;;;;;
2022/08/29 08:08:52;;;;;;;1.4;1.3;;;;;;;;;;;;;
2022/08/29 08:11:17;;;;;;;1.1;1;;;;;;;;;;;;;
2022/08/29 08:13:43;;;;;;;1.3;1.2;;;;;;;;;;;;;
2022/08/29 08:16:08;;;;;;;1.4;1.3;;;;;;;;;;;;;
2022/08/29 08:18:34;;;;;;;1.3;1.2;;;;;;;;;;;;;
2022/08/29 08:21:00;;;;;;;1.8;1.3;;;;;;;;;;;;;
2022/08/29 08:23:26;;;;;;;1.3;1.2;;;;;;;;;;;;;
2022/08/29 08:25:51;;;;;;;1.2;1.1;;;;;;;;;;;;;
2022/08/29 08:28:18;;;;;;;1.2;1.1;;;;;;;;;;;;;
2022/08/29 08:30:43;;;;;;;1.4;1.3;;;;;;;;;;;;;
2022/08/29 08:33:10;;;;;;;1.3;1.2;;;;;;;;;;;;;
2022/08/29 08:35:36;;;;;;;2;1.5;;;;;;;;;;;;;
2022/08/29 08:38:01;;;;;;;1.4;1.3;;;;;;;;;;;;;
2022/08/29 08:40:27;;;;;;;5.4;1.9;;;;;;;;;;;;;
2022/08/29 08:42:53;;;;;;;2.3;1.4;;;;;;;;;;;;;
2022/08/29 08:45:18;;;;;;;2.4;1.5;;;;;;;;;;;;;
2022/08/29 08:47:46;;;;;;;1.2;1.2;;;;;;;;;;;;;
2022/08/29 08:50:11;;;;;;;1.4;1.3;;;;;;;;;;;;;
2022/08/29 08:52:35;;;;;;;1.7;1.2;;;;;;;;;;;;;
2022/08/29 08:55:00;;;;;;;1.2;1.1;;;;;;;;;;;;;
2022/08/29 08:57:25;;;;;;;1.3;1.2;;;;;;;;;;;;;
2022/08/29 08:59:51;;;;;;;2.7;1.7;;;;;;;;;;;;;
2022/08/29 09:02:16;;;;;;;1.7;1.2;;;;;;;;;;;;;
2022/08/29 09:04:41;;;;;;;1.9;1.4;;;;;;;;;;;;;
2022/08/29 09:07:08;;;;;;;1.1;1.1;;;;;;;;;;;;;
2022/08/29 09:09:33;;;;;;;1.2;1.2;;;;;;;;;;;;;
2022/08/29 09:12:00;;;;;;;1.5;1.4;;;;;;;;;;;;;
2022/08/29 09:14:24;;;;;;;1.5;1.3;;;;;;;;;;;;;
2022/08/29 09:16:51;;;;;;;1.4;1.3;;;;;;;;;;;;;
2022/08/29 09:19:16;;;;;;;1.5;1.4;;;;;;;;;;;;;
2022/08/29 09:21:42;;;;;;;1.7;1.6;;;;;;;;;;;;;
2022/08/29 09:24:07;;;;;;;1.7;1.6;;;;;;;;;;;;;
2022/08/29 09:26:33;;;;;;;1.6;1.5;;;;;;;;;;;;;
2022/08/29 09:29:02;;;;;;;2.2;1.6;;;;;;;;;;;;;
2022/08/29 09:31:31;;;;;;;1.6;1.5;;;;;;;;;;;;;
2022/08/29 09:33:55;;;;;;;1.8;1.6;;;;;;;;;;;;;
2022/08/29 09:36:20;;;;;;;1.6;1.5;;;;;;;;;;;;;
2022/08/29 09:38:45;;;;;;;1.8;1.7;;;;;;;;;;;;;
2022/08/29 09:41:13;;;;;;;2.1;1.9;;;;;;;;;;;;;
2022/08/29 09:43:36;;;;;;;1.7;1.6;;;;;;;;;;;;;
2022/08/29 09:46:01;;;;;;;2.9;2.1;;;;;;;;;;;;;
2022/08/29 09:48:26;;;;;;;2.2;2;;;;;;;;;;;;;
2022/08/29 09:50:51;;;;;;;2.2;2.1;;;;;;;;;;;;;
2022/08/29 09:53:16;;;;;;;2.5;1.9;;;;;;;;;;;;;
2022/08/29 09:55:43;;;;;;;2.1;1.9;;;;;;;;;;;;;
2022/08/29 09:58:09;;;;;;;5.6;2.4;;;;;;;;;;;;;
2022/08/29 10:00:34;;;;;;;3.6;2.1;;;;;;;;;;;;;
2022/08/29 10:02:59;;;;;;;3.1;2.2;;;;;;;;;;;;;
2022/08/29 10:05:23;;;;;;;3.8;2.1;;;;;;;;;;;;;
2022/08/29 10:07:49;;;;;;;2.5;2.3;;;;;;;;;;;;;
2022/08/29 10:10:15;;;;;;;2.2;2;;;;;;;;;;;;;
2022/08/29 10:12:41;;;;;;;2.2;2;;;;;;;;;;;;;
2022/08/29 10:15:06;;;;;;;2.2;1.9;;;;;;;;;;;;;
2022/08/29 10:20:01;;;;;;;2.3;1.8;;;;;;;;;;;;;
2022/08/29 10:22:26;;;;;;;2.1;1.8;;;;;;;;;;;;;
2022/08/29 10:24:52;;;;;;;2;1.6;;;;;;;;;;;;;
2022/08/29 10:27:17;;;;;;;1.6;1.5;;;;;;;;;;;;;
2022/08/29 10:29:46;;;;;;;1.7;1.6;;;;;;;;;;;;;
2022/08/29 10:32:10;;;;;;;1.6;1.5;;;;;;;;;;;;;
2022/08/29 10:34:37;;;;;;;1.9;1.7;;;;;;;;;;;;;
2022/08/29 10:37:05;;;;;;;2.6;1.7;;;;;;;;;;;;;
2022/08/29 10:39:30;;;;;;;1.9;1.8;;;;;;;;;;;;;
2022/08/29 10:41:55;;;;;;;1.8;1.7;;;;;;;;;;;;;
2022/08/29 10:44:22;;;;;;;1.8;1.7;;;;;;;;;;;;;
2022/08/29 10:46:47;;;;;;;2.1;1.9;;;;;;;;;;;;;
2022/08/29 10:49:12;;;;;;;2.2;2.1;;;;;;;;;;;;;
2022/08/29 10:51:37;;;;;;;2;1.8;;;;;;;;;;;;;
2022/08/29 10:54:02;;;;;;;1.8;1.7;;;;;;;;;;;;;
2022/08/29 10:56:28;;;;;;;2.1;1.8;;;;;;;;;;;;;
2022/08/29 10:58:53;;;;;;;2.8;1.9;;;;;;;;;;;;;
2022/08/29 11:01:19;;;;;;;1.6;1.5;;;;;;;;;;;;;
2022/08/29 11:03:44;;;;;;;2.2;1.9;;;;;;;;;;;;;
2022/08/29 11:06:11;;;;;;;3.3;2.1;;;;;;;;;;;;;
2022/08/29 11:08:35;;;;;;;1.8;1.7;;;;;;;;;;;;;
2022/08/29 11:11:02;;;;;;;2;1.9;;;;;;;;;;;;;
2022/08/29 11:13:27;;;;;;;3.3;1.7;;;;;;;;;;;;;
2022/08/29 11:15:54;;;;;;;2.8;2;;;;;;;;;;;;;
2022/08/29 11:18:19;;;;;;;2.4;2;;;;;;;;;;;;;
2022/08/29 11:20:44;;;;;;;1.7;1.6;;;;;;;;;;;;;
2022/08/29 11:23:11;;;;;;;1.7;1.6;;;;;;;;;;;;;
2022/08/29 11:25:35;;;;;;;2;1.8;;;;;;;;;;;;;
2022/08/29 11:28:02;;;;;;;1.7;1.6;;;;;;;;;;;;;
2022/08/29 11:30:27;;;;;;;2.7;1.8;;;;;;;;;;;;;
2022/08/29 11:32:55;;;;;;;1.6;1.5;;;;;;;;;;;;;
2022/08/29 11:35:19;;;;;;;2.7;1.8;;;;;;;;;;;;;
2022/08/29 11:37:44;;;;;;;2.6;1.5;;;;;;;;;;;;;
2022/08/29 11:40:09;;;;;;;1.8;1.7;;;;;;;;;;;;;
2022/08/29 11:42:34;;;;;;;2.1;2;;;;;;;;;;;;;
2022/08/29 11:45:01;;;;;;;2.9;2;;;;;;;;;;;;;
2022/08/29 11:47:26;;;;;;;2.4;1.9;;;;;;;;;;;;;
2022/08/29 11:49:54;;;;;;;2.1;1.9;;;;;;;;;;;;;
2022/08/29 11:52:19;;;;;;;2.5;1.8;;;;;;;;;;;;;
2022/08/29 11:54:44;;;;;;;1.9;1.7;;;;;;;;;;;;;
2022/08/29 11:57:09;;;;;;;2.2;2.1;;;;;;;;;;;;;
2022/08/29 11:59:34;;;;;;;3.5;2.6;;;;;;;;;;;;;
2022/08/29 12:02:03;;;;;;;2.8;2.6;;;;;;;;;;;;;
2022/08/29 12:04:28;;;;;;;2.9;2.4;;;;;;;;;;;;;
2022/08/29 12:06:55;;;;;;;2.5;2.3;;;;;;;;;;;;;
2022/08/29 12:09:21;;;;;;;3.4;2.5;;;;;;;;;;;;;
2022/08/29 12:11:46;;;;;;;3.1;2.6;;;;;;;;;;;;;
2022/08/29 12:14:11;;;;;;;3.2;2.8;;;;;;;;;;;;;
2022/08/29 12:16:36;;;;;;;2.3;2.1;;;;;;;;;;;;;
2022/08/29 12:19:01;;;;;;;2.8;2.5;;;;;;;;;;;;;
2022/08/29 12:21:28;;;;;;;2.9;2.6;;;;;;;;;;;;;
2022/08/29 12:23:53;;;;;;;2.7;2.3;;;;;;;;;;;;;
2022/08/29 12:26:19;;;;;;;3;2.5;;;;;;;;;;;;;
2022/08/29 12:28:44;;;;;;;2.6;2.4;;;;;;;;;;;;;
2022/08/29 12:31:09;;;;;;;2.7;2.5;;;;;;;;;;;;;
2022/08/29 12:33:35;;;;;;;4.1;2.3;;;;;;;;;;;;;
2022/08/29 12:36:04;;;;;;;2.7;2.5;;;;;;;;;;;;;
2022/08/29 12:38:30;;;;;;;3;2.7;;;;;;;;;;;;;
2022/08/29 12:40:54;;;;;;;4.1;2.7;;;;;;;;;;;;;
2022/08/29 12:43:19;;;;;;;2.7;2.5;;;;;;;;;;;;;
2022/08/29 12:45:44;;;;;;;3.6;2.8;;;;;;;;;;;;;
2022/08/29 12:48:10;;;;;;;3.5;2.7;;;;;;;;;;;;;
2022/08/29 12:50:44;;;;;;;3.7;2.5;;;;;;;;;;;;;
2022/08/29 12:53:09;;;;;;;3;2.7;;;;;;;;;;;;;
2022/08/29 12:55:37;;;;;;;3.4;2.7;;;;;;;;;;;;;
2022/08/29 12:58:00;;;;;;;2.4;2.2;;;;;;;;;;;;;
2022/08/29 13:00:26;;;;;;;3.4;2.7;;;;;;;;;;;;;
2022/08/29 13:02:51;;;;;;;3;2.7;;;;;;;;;;;;;
2022/08/29 13:05:18;;;;;;;4;2.8;;;;;;;;;;;;;
2022/08/29 13:07:43;;;;;;;2.8;2.6;;;;;;;;;;;;;
2022/08/29 13:10:12;;;;;;;3;2.7;;;;;;;;;;;;;
2022/08/29 13:12:37;;;;;;;4;3.1;;;;;;;;;;;;;
2022/08/29 13:15:03;;;;;;;3.2;2.7;;;;;;;;;;;;;
2022/08/29 13:17:28;;;;;;;3.3;2.9;;;;;;;;;;;;;
2022/08/29 13:19:53;;;;;;;3.2;2.6;;;;;;;;;;;;;
2022/08/29 13:22:18;;;;;;;3.8;3.4;;;;;;;;;;;;;
2022/08/29 13:24:43;;;;;;;3.5;2.9;;;;;;;;;;;;;
2022/08/29 13:27:10;;;;;;;4.8;3;;;;;;;;;;;;;
2022/08/29 13:29:35;;;;;;;3.3;3;;;;;;;;;;;;;
2022/08/29 13:32:00;;;;;;;3.9;2.9;;;;;;;;;;;;;
2022/08/29 13:34:25;;;;;;;3.3;2.7;;;;;;;;;;;;;
2022/08/29 13:36:50;;;;;;;3.7;2.8;;;;;;;;;;;;;
2022/08/29 13:39:16;;;;;;;5.5;2.9;;;;;;;;;;;;;
2022/08/29 13:41:42;;;;;;;3.9;2.7;;;;;;;;;;;;;
2022/08/29 13:44:07;;;;;;;3.4;3;;;;;;;;;;;;;
2022/08/29 13:46:32;;;;;;;3.2;2.9;;;;;;;;;;;;;
2022/08/29 13:48:57;;;;;;;3.7;3.1;;;;;;;;;;;;;
2022/08/29 13:51:24;;;;;;;3.6;2.9;;;;;;;;;;;;;
2022/08/29 13:53:49;;;;;;;3.2;2.9;;;;;;;;;;;;;
2022/08/29 13:56:14;;;;;;;4.4;3;;;;;;;;;;;;;
2022/08/29 13:58:39;;;;;;;3.6;3.2;;;;;;;;;;;;;
2022/08/29 14:01:06;;;;;;;4.1;3.3;;;;;;;;;;;;;
2022/08/29 14:03:31;;;;;;;4.7;3.3;;;;;;;;;;;;;
2022/08/29 14:05:57;;;;;;;4.1;3.3;;;;;;;;;;;;;
2022/08/29 14:08:21;;;;;;;4.5;3;;;;;;;;;;;;;
2022/08/29 14:10:47;;;;;;;3.3;3;;;;;;;;;;;;;
2022/08/29 14:13:12;;;;;;;4.6;2.9;;;;;;;;;;;;;
2022/08/29 14:15:40;;;;;;;4.9;2.9;;;;;;;;;;;;;
2022/08/29 14:18:06;;;;;;;2.8;2.6;;;;;;;;;;;;;
2022/08/29 14:20:31;;;;;;;3;2.7;;;;;;;;;;;;;
2022/08/29 14:22:56;;;;;;;5.4;3.3;;;;;;;;;;;;;
2022/08/29 14:25:22;;;;;;;3.7;3.2;;;;;;;;;;;;;
2022/08/29 14:27:48;;;;;;;3.3;2.9;;;;;;;;;;;;;
2022/08/29 14:30:15;;;;;;;3.4;3;;;;;;;;;;;;;
2022/08/29 14:32:40;;;;;;;3.2;2.9;;;;;;;;;;;;;
2022/08/29 14:35:06;;;;;;;4.3;3.1;;;;;;;;;;;;;
2022/08/29 14:37:31;;;;;;;7.9;3.4;;;;;;;;;;;;;
2022/08/29 14:39:57;;;;;;;4.9;3.3;;;;;;;;;;;;;
2022/08/29 14:42:22;;;;;;;6.9;3.2;;;;;;;;;;;;;
2022/08/29 14:44:49;;;;;;;3.5;3.1;;;;;;;;;;;;;
2022/08/29 14:47:14;;;;;;;3.3;3;;;;;;;;;;;;;
2022/08/29 14:49:40;;;;;;;4.2;3.3;;;;;;;;;;;;;
2022/08/29 14:52:06;;;;;;;3.8;3.1;;;;;;;;;;;;;
2022/08/29 14:54:31;;;;;;;7.2;3.8;;;;;;;;;;;;;
2022/08/29 14:56:56;;;;;;;6.6;3.4;;;;;;;;;;;;;
2022/08/29 14:59:24;;;;;;;3.4;3.1;;;;;;;;;;;;;
2022/08/29 15:01:47;;;;;;;3.5;3;;;;;;;;;;;;;
2022/08/29 15:04:14;;;;;;;4.6;3.6;;;;;;;;;;;;;
2022/08/29 15:06:39;;;;;;;3.6;3.3;;;;;;;;;;;;;
2022/08/29 15:09:06;;;;;;;3.4;2.9;;;;;;;;;;;;;
2022/08/29 15:11:31;;;;;;;3.5;3.1;;;;;;;;;;;;;
2022/08/29 15:13:56;;;;;;;3.9;3.1;;;;;;;;;;;;;
2022/08/29 15:16:21;;;;;;;4;3.1;;;;;;;;;;;;;
2022/08/29 15:18:47;;;;;;;3.3;2.9;;;;;;;;;;;;;
2022/08/29 15:21:13;;;;;;;5.8;3;;;;;;;;;;;;;
2022/08/29 15:23:40;;;;;;;3.4;3.1;;;;;;;;;;;;;
2022/08/29 15:26:04;;;;;;;6;3.2;;;;;;;;;;;;;
2022/08/29 15:28:30;;;;;;;4;3.1;;;;;;;;;;;;;
2022/08/29 15:30:55;;;;;;;3.8;3.4;;;;;;;;;;;;;
2022/08/29 15:33:21;;;;;;;4.8;3.7;;;;;;;;;;;;;
2022/08/29 15:35:46;;;;;;;3.5;3.2;;;;;;;;;;;;;
2022/08/29 15:38:13;;;;;;;5.2;3.4;;;;;;;;;;;;;
2022/08/29 15:40:38;;;;;;;4;2.9;;;;;;;;;;;;;
2022/08/29 15:43:06;;;;;;;5.5;3.3;;;;;;;;;;;;;
2022/08/29 15:45:31;;;;;;;5.4;3.1;;;;;;;;;;;;;
2022/08/29 15:47:57;;;;;;;3.5;3;;;;;;;;;;;;;
2022/08/29 15:50:22;;;;;;;3.4;3;;;;;;;;;;;;;
2022/08/29 15:52:49;;;;;;;4;3.1;;;;;;;;;;;;;
2022/08/29 15:55:15;;;;;;;4.6;3.1;;;;;;;;;;;;;
2022/08/29 15:57:41;;;;;;;3.3;3;;;;;;;;;;;;;
2022/08/29 16:00:06;;;;;;;3.1;2.7;;;;;;;;;;;;;
2022/08/29 16:02:32;;;;;;;4.7;3.2;;;;;;;;;;;;;
2022/08/29 16:04:58;;;;;;;4.5;3.6;;;;;;;;;;;;;
2022/08/29 16:07:24;;;;;;;3.7;3;;;;;;;;;;;;;
2022/08/29 16:09:48;;;;;;;3.5;3.1;;;;;;;;;;;;;
2022/08/29 16:12:15;;;;;;;3.6;3.3;;;;;;;;;;;;;
2022/08/29 16:14:40;;;;;;;5;3.1;;;;;;;;;;;;;
2022/08/29 16:17:06;;;;;;;3.5;3;;;;;;;;;;;;;
2022/08/29 16:19:31;;;;;;;3.6;3.1;;;;;;;;;;;;;
2022/08/29 16:21:58;;;;;;;3.7;3.2;;;;;;;;;;;;;
2022/08/29 16:24:24;;;;;;;4;3.1;;;;;;;;;;;;;
2022/08/29 16:26:47;;;;;;;4.2;3.2;;;;;;;;;;;;;
2022/08/29 16:29:12;;;;;;;4.6;3.1;;;;;;;;;;;;;
2022/08/29 16:31:38;;;;;;;3.7;3.3;;;;;;;;;;;;;
2022/08/29 16:34:03;;;;;;;3.8;3.4;;;;;;;;;;;;;
2022/08/29 16:36:28;;;;;;;4;3.1;;;;;;;;;;;;;
2022/08/29 16:38:53;;;;;;;3.4;3.1;;;;;;;;;;;;;
2022/08/29 16:41:18;;;;;;;4.3;3.2;;;;;;;;;;;;;
2022/08/29 16:43:48;;;;;;;3.5;3.2;;;;;;;;;;;;;
2022/08/29 16:46:11;;;;;;;5.7;4;;;;;;;;;;;;;
2022/08/29 16:48:37;;;;;;;3.9;3.3;;;;;;;;;;;;;
2022/08/29 16:51:02;;;;;;;4;3.5;;;;;;;;;;;;;
2022/08/29 16:53:28;;;;;;;4.5;3.4;;;;;;;;;;;;;
2022/08/29 16:55:53;;;;;;;6.3;3.7;;;;;;;;;;;;;
2022/08/29 17:00:45;;;;;;;3.9;3.6;;;;;;;;;;;;;
2022/08/29 17:03:09;;;;;;;4.6;3.4;;;;;;;;;;;;;
2022/08/29 17:05:34;;;;;;;4.8;3.5;;;;;;;;;;;;;
2022/08/29 17:17:46;;;;;;;3.9;3.5;;;;;;;;;;;;;
2022/08/29 17:20:13;;;;;;;4.7;3.5;;;;;;;;;;;;;
2022/08/29 17:22:39;;;;;;;3.7;3.4;;;;;;;;;;;;;
2022/08/29 17:25:04;;;;;;;3.9;3.5;;;;;;;;;;;;;
2022/08/29 17:27:30;;;;;;;4.4;3.8;;;;;;;;;;;;;
2022/08/29 17:29:55;;;;;;;5;3.9;;;;;;;;;;;;;
2022/08/29 17:32:21;;;;;;;5.5;3.8;;;;;;;;;;;;;
2022/08/29 17:34:46;;;;;;;4;3.6;;;;;;;;;;;;;
2022/08/29 17:37:13;;;;;;;4.6;3.6;;;;;;;;;;;;;
2022/08/29 17:39:38;;;;;;;4.5;4.1;;;;;;;;;;;;;
2022/08/29 17:42:05;;;;;;;4.2;3.8;;;;;;;;;;;;;
2022/08/29 17:44:30;;;;;;;4.4;3.7;;;;;;;;;;;;;
2022/08/29 17:46:57;;;;;;;4.1;3.7;;;;;;;;;;;;;
2022/08/29 17:49:22;;;;;;;6.3;4.8;;;;;;;;;;;;;
2022/08/29 17:51:48;;;;;;;5.8;3.4;;;;;;;;;;;;;
2022/08/29 17:54:13;;;;;;;7.6;4.7;;;;;;;;;;;;;
2022/08/29 17:56:39;;;;;;;4.1;3.7;;;;;;;;;;;;;
2022/08/29 17:59:04;;;;;;;5.9;4.3;;;;;;;;;;;;;
2022/08/29 18:01:30;;;;;;;4.7;4.2;;;;;;;;;;;;;
2022/08/29 18:03:55;;;;;;;6.6;4.4;;;;;;;;;;;;;
2022/08/29 18:06:22;;;;;;;5.8;4.9;;;;;;;;;;;;;
2022/08/29 18:08:47;;;;;;;5.9;4.4;;;;;;;;;;;;;
2022/08/29 18:11:14;;;;;;;5.5;4.7;;;;;;;;;;;;;
2022/08/29 18:13:38;;;;;;;5.4;4.7;;;;;;;;;;;;;
2022/08/29 18:16:09;;;;;;;5.4;4.4;;;;;;;;;;;;;
2022/08/29 18:18:37;;;;;;;6;4.8;;;;;;;;;;;;;
2022/08/29 18:21:03;;;;;;;6.2;4.5;;;;;;;;;;;;;
2022/08/29 18:23:31;;;;;;;6.9;4.5;;;;;;;;;;;;;
2022/08/29 18:25:56;;;;;;;5.1;4.6;;;;;;;;;;;;;
2022/08/29 18:28:21;;;;;;;5;4.5;;;;;;;;;;;;;
2022/08/29 18:30:46;;;;;;;6.9;4.6;;;;;;;;;;;;;
2022/08/29 18:33:13;;;;;;;5.2;4.7;;;;;;;;;;;;;
2022/08/29 18:35:38;;;;;;;6;5.1;;;;;;;;;;;;;
2022/08/29 18:38:05;;;;;;;5.5;4.5;;;;;;;;;;;;;
2022/08/29 18:40:30;;;;;;;5;4.5;;;;;;;;;;;;;
2022/08/29 18:42:55;;;;;;;8;4.9;;;;;;;;;;;;;
2022/08/29 18:45:21;;;;;;;7.1;5.3;;;;;;;;;;;;;
2022/08/29 18:47:47;;;;;;;6.5;5.1;;;;;;;;;;;;;
2022/08/29 18:52:38;;;;;;;7.7;5.4;;;;;;;;;;;;;
2022/08/29 18:55:02;;;;;;;5.2;4.7;;;;;;;;;;;;;
2022/08/29 18:57:28;;;;;;;5.5;4.9;;;;;;;;;;;;;
2022/08/29 18:59:53;;;;;;;6.3;5.2;;;;;;;;;;;;;
2022/08/29 19:02:20;;;;;;;5.5;4.9;;;;;;;;;;;;;
2022/08/29 19:04:46;;;;;;;6.3;4.6;;;;;;;;;;;;;
2022/08/29 19:07:10;;;;;;;6.7;4.4;;;;;;;;;;;;;
2022/08/29 19:09:35;;;;;;;6.7;4.6;;;;;;;;;;;;;
2022/08/29 19:12:01;;;;;;;6.6;5.4;;;;;;;;;;;;;
2022/08/29 19:14:26;;;;;;;6.4;5.2;;;;;;;;;;;;;
2022/08/29 19:16:56;;;;;;;7.8;5.5;;;;;;;;;;;;;
2022/08/29 19:19:20;;;;;;;6.1;4.8;;;;;;;;;;;;;
2022/08/29 19:21:45;;;;;;;6.5;4.8;;;;;;;;;;;;;
2022/08/29 19:24:10;;;;;;;5.8;4.9;;;;;;;;;;;;;
2022/08/29 19:26:36;;;;;;;6.6;4.9;;;;;;;;;;;;;
2022/08/29 19:29:00;;;;;;;6.3;5.5;;;;;;;;;;;;;
2022/08/29 19:31:27;;;;;;;6.1;5;;;;;;;;;;;;;
2022/08/29 19:33:52;;;;;;;5.5;4.8;;;;;;;;;;;;;
2022/08/29 19:36:18;;;;;;;10.3;5.1;;;;;;;;;;;;;
2022/08/29 19:38:42;;;;;;;6.2;4.8;;;;;;;;;;;;;
2022/08/29 19:41:09;;;;;;;7.2;5;;;;;;;;;;;;;
2022/08/29 19:43:34;;;;;;;5.8;5.2;;;;;;;;;;;;;
2022/08/29 19:45:59;;;;;;;6.8;5.4;;;;;;;;;;;;;
2022/08/29 19:48:25;;;;;;;8.8;5.9;;;;;;;;;;;;;
2022/08/29 19:50:52;;;;;;;8.6;5.1;;;;;;;;;;;;;
2022/08/29 19:53:17;;;;;;;6.8;5.2;;;;;;;;;;;;;
2022/08/29 19:55:41;;;;;;;6.5;5.5;;;;;;;;;;;;;
2022/08/29 19:58:07;;;;;;;7.1;5.3;;;;;;;;;;;;;
2022/08/29 20:00:33;;;;;;;6.5;4.8;;;;;;;;;;;;;
2022/08/29 20:02:58;;;;;;;8.5;5.6;;;;;;;;;;;;;
2022/08/29 20:05:26;;;;;;;6.4;4.8;;;;;;;;;;;;;
2022/08/29 20:07:51;;;;;;;7.8;5.6;;;;;;;;;;;;;
2022/08/29 20:10:20;;;;;;;7;5.6;;;;;;;;;;;;;
2022/08/29 20:12:42;;;;;;;6.7;5.7;;;;;;;;;;;;;